createdAt,value
2017-10-09T00:00:18.766Z,2.43
2017-10-09T00:02:47.071Z,3.00
2017-10-09T00:05:15.432Z,2.50
2017-10-09T00:07:43.719Z,2.83
2017-10-09T00:10:12.011Z,2.80
2017-10-09T00:12:40.331Z,2.90
2017-10-09T00:15:08.617Z,3.30
2017-10-09T00:17:36.924Z,3.83
2017-10-09T00:20:05.413Z,4.27
2017-10-09T00:22:33.760Z,3.70
2017-10-09T00:25:02.063Z,4.00
2017-10-09T00:27:30.361Z,4.80
2017-10-09T00:29:59.063Z,4.40
2017-10-09T00:32:28.847Z,3.97
2017-10-09T00:34:57.174Z,4.43
2017-10-09T00:37:25.475Z,3.90
2017-10-09T00:39:53.796Z,4.43
2017-10-09T00:42:22.160Z,4.87
2017-10-09T00:44:50.456Z,3.90
2017-10-09T00:47:18.751Z,4.43
2017-10-09T00:49:47.052Z,4.57
2017-10-09T00:52:15.370Z,3.87
2017-10-09T00:54:43.671Z,3.73
2017-10-09T00:57:11.984Z,3.37
2017-10-09T00:59:40.335Z,3.60
2017-10-09T01:02:08.627Z,3.30
2017-10-09T01:04:36.927Z,3.60
2017-10-09T01:07:05.223Z,3.70
2017-10-09T01:09:33.587Z,3.53
2017-10-09T01:12:01.933Z,3.20
2017-10-09T01:14:30.258Z,2.90
2017-10-09T01:16:58.570Z,2.93
2017-10-09T01:19:27.657Z,3.17
2017-10-09T01:21:55.961Z,2.70
2017-10-09T01:24:25.024Z,2.80
2017-10-09T01:26:53.328Z,2.57
2017-10-09T01:29:21.743Z,2.13
2017-10-09T01:31:50.044Z,2.63
2017-10-09T01:34:18.352Z,2.10
2017-10-09T01:36:46.735Z,2.63
2017-10-09T01:39:15.040Z,2.30
2017-10-09T01:41:43.352Z,2.00
2017-10-09T01:44:11.658Z,2.30
2017-10-09T01:46:39.956Z,2.47
2017-10-09T01:49:08.285Z,1.90
2017-10-09T01:51:36.588Z,1.83
2017-10-09T01:54:04.880Z,1.87
2017-10-09T01:56:33.273Z,2.23
2017-10-09T01:59:01.609Z,2.13
2017-10-09T02:01:30.759Z,1.93
2017-10-09T02:03:59.724Z,2.83
2017-10-09T02:06:28.032Z,2.40
2017-10-09T02:08:56.327Z,2.43
2017-10-09T02:11:24.793Z,1.90
2017-10-09T02:13:53.204Z,2.10
2017-10-09T02:16:21.510Z,1.63
2017-10-09T02:18:50.578Z,2.40
2017-10-09T02:21:18.878Z,2.00
2017-10-09T02:23:47.181Z,2.27
2017-10-09T02:26:16.399Z,2.43
2017-10-09T02:28:44.736Z,2.47
2017-10-09T02:31:13.125Z,2.60
2017-10-09T02:33:41.434Z,3.00
2017-10-09T02:36:10.513Z,3.03
2017-10-09T02:38:38.811Z,3.60
2017-10-09T02:41:07.878Z,3.63
2017-10-09T02:43:36.176Z,4.13
2017-10-09T02:46:05.257Z,3.97
2017-10-09T02:48:33.624Z,3.83
2017-10-09T02:51:01.934Z,3.87
2017-10-09T02:53:30.258Z,5.37
2017-10-09T02:55:58.560Z,4.77
2017-10-09T02:58:26.894Z,4.97
2017-10-09T03:00:56.049Z,4.80
2017-10-09T03:03:24.359Z,6.17
2017-10-09T03:05:52.658Z,6.30
2017-10-09T03:08:21.721Z,5.70
2017-10-09T03:10:50.031Z,6.07
2017-10-09T03:13:19.096Z,6.80
2017-10-09T03:15:47.506Z,7.20
2017-10-09T03:18:16.664Z,8.40
2017-10-09T03:20:44.983Z,7.00
2017-10-09T03:23:17.666Z,8.13
2017-10-09T03:25:45.964Z,7.80
2017-10-09T03:31:21.437Z,8.80
2017-10-09T03:33:49.858Z,8.13
2017-10-09T03:36:18.167Z,8.90
2017-10-09T03:38:46.485Z,9.23
2017-10-09T03:41:14.793Z,8.90
2017-10-09T03:43:43.117Z,10.83
2017-10-09T03:46:11.428Z,10.10
2017-10-09T03:48:39.729Z,10.03
2017-10-09T03:51:08.038Z,10.10
2017-10-09T03:53:36.357Z,11.77
2017-10-09T03:56:05.438Z,11.73
2017-10-09T03:58:33.741Z,11.13
2017-10-09T04:01:02.812Z,12.77
2017-10-09T04:03:31.895Z,12.63
2017-10-09T04:06:00.199Z,13.07
2017-10-09T04:08:28.506Z,13.07
2017-10-09T04:10:56.802Z,13.83
2017-10-09T04:13:25.114Z,12.87
2017-10-09T04:15:53.433Z,13.93
2017-10-09T04:18:22.504Z,14.57
2017-10-09T04:20:50.827Z,14.40
2017-10-09T04:23:19.137Z,15.13
2017-10-09T04:25:47.447Z,15.90
2017-10-09T04:28:15.755Z,15.47
2017-10-09T04:30:44.833Z,14.57
2017-10-09T04:33:13.133Z,15.10
2017-10-09T04:35:41.437Z,15.53
2017-10-09T04:38:09.771Z,15.27
2017-10-09T04:40:38.078Z,15.73
2017-10-09T04:43:06.390Z,15.10
2017-10-09T04:45:34.699Z,15.87
2017-10-09T04:48:03.004Z,14.70
2017-10-09T04:50:31.335Z,15.67
2017-10-09T04:52:59.657Z,14.63
2017-10-09T04:55:28.023Z,15.27
2017-10-09T04:57:56.343Z,14.40
2017-10-09T05:00:24.769Z,16.77
2017-10-09T05:02:53.067Z,15.77
2017-10-09T05:05:21.367Z,16.60
2017-10-09T05:07:49.680Z,15.13
2017-10-09T05:10:18.774Z,14.73
2017-10-09T05:12:47.073Z,14.43
2017-10-09T05:15:16.180Z,16.03
2017-10-09T05:17:44.498Z,15.10
2017-10-09T05:20:12.826Z,15.20
2017-10-09T05:22:41.886Z,16.07
2017-10-09T05:25:10.185Z,15.20
2017-10-09T05:27:38.509Z,14.53
2017-10-09T05:30:06.807Z,15.40
2017-10-09T05:32:35.119Z,15.80
2017-10-09T05:35:03.449Z,15.00
2017-10-09T05:37:31.769Z,16.80
2017-10-09T05:40:00.078Z,16.33
2017-10-09T05:42:28.396Z,13.20
2017-10-09T05:44:56.849Z,14.10
2017-10-09T05:47:25.160Z,15.13
2017-10-09T05:49:53.477Z,14.07
2017-10-09T05:52:21.770Z,14.67
2017-10-09T05:54:50.092Z,13.97
2017-10-09T05:57:19.246Z,14.57
2017-10-09T05:59:47.548Z,14.30
2017-10-09T06:02:15.853Z,16.40
2017-10-09T06:04:44.936Z,15.80
2017-10-09T06:07:13.251Z,16.17
2017-10-09T06:09:41.556Z,15.63
2017-10-09T06:12:09.861Z,14.80
2017-10-09T06:14:38.173Z,15.77
2017-10-09T06:17:06.483Z,15.83
2017-10-09T06:19:34.794Z,15.23
2017-10-09T06:22:03.101Z,15.90
2017-10-09T06:24:31.399Z,17.53
2017-10-09T06:27:00.469Z,15.13
2017-10-09T06:29:28.791Z,15.17
2017-10-09T06:31:57.851Z,17.47
2017-10-09T06:34:26.159Z,18.02
2017-10-09T06:36:54.479Z,17.17
2017-10-09T06:39:22.874Z,16.30
2017-10-09T06:41:51.166Z,15.77
2017-10-09T06:44:19.478Z,14.80
2017-10-09T06:46:48.554Z,15.70
2017-10-09T06:49:16.903Z,14.27
2017-10-09T06:51:45.223Z,15.50
2017-10-09T06:54:13.517Z,14.00
2017-10-09T06:56:41.837Z,12.97
2017-10-09T06:59:10.235Z,12.63
2017-10-09T07:01:38.528Z,12.80
2017-10-09T07:04:06.834Z,12.77
2017-10-09T07:06:35.136Z,14.30
2017-10-09T07:09:03.446Z,13.63
2017-10-09T07:11:31.747Z,14.10
2017-10-09T07:14:00.036Z,14.77
2017-10-09T07:16:28.345Z,13.80
2017-10-09T07:18:56.684Z,13.60
2017-10-09T07:21:24.999Z,13.97
2017-10-09T07:23:53.336Z,14.53
2017-10-09T07:26:21.717Z,14.30
2017-10-09T07:28:50.026Z,13.73
2017-10-09T07:31:18.431Z,15.13
2017-10-09T07:33:46.737Z,14.10
2017-10-09T07:36:15.067Z,14.17
2017-10-09T07:38:43.363Z,14.00
2017-10-09T07:41:11.705Z,14.90
2017-10-09T07:43:40.851Z,13.97
2017-10-09T07:46:09.209Z,13.60
2017-10-09T07:48:37.518Z,11.90
2017-10-09T07:51:05.837Z,11.13
2017-10-09T07:53:34.135Z,11.87
2017-10-09T07:56:03.211Z,12.13
2017-10-09T07:58:31.548Z,12.20
2017-10-09T08:00:59.845Z,11.63
2017-10-09T08:03:28.145Z,12.27
2017-10-09T08:05:56.533Z,11.83
2017-10-09T08:08:24.841Z,12.97
2017-10-09T08:10:53.913Z,13.50
2017-10-09T08:13:22.232Z,13.67
2017-10-09T08:15:50.529Z,13.20
2017-10-09T08:18:18.832Z,13.00
2017-10-09T08:20:47.151Z,11.93
2017-10-09T08:23:16.227Z,10.80
2017-10-09T08:25:44.546Z,10.80
2017-10-09T08:28:13.616Z,10.50
2017-10-09T08:30:42.688Z,10.47
2017-10-09T08:33:10.995Z,9.37
2017-10-09T08:35:39.287Z,7.23
2017-10-09T08:38:07.625Z,6.83
2017-10-09T08:40:35.918Z,6.33
2017-10-09T08:43:04.226Z,7.30
2017-10-09T08:45:33.299Z,6.10
2017-10-09T08:48:01.612Z,6.57
2017-10-09T08:50:29.912Z,6.67
2017-10-09T08:52:58.976Z,7.10
2017-10-09T08:55:27.282Z,7.37
2017-10-09T08:57:56.400Z,7.60
2017-10-09T09:00:24.703Z,8.80
2017-10-09T09:02:53.009Z,9.83
2017-10-09T09:05:21.329Z,9.90
2017-10-09T09:07:49.703Z,11.00
2017-10-09T09:10:18.009Z,12.33
2017-10-09T09:12:46.313Z,12.37
2017-10-09T09:15:14.726Z,14.00
2017-10-09T09:17:43.035Z,13.97
2017-10-09T09:20:11.494Z,12.03
2017-10-09T09:22:39.820Z,14.30
2017-10-09T09:25:08.121Z,16.67
2017-10-09T09:27:36.424Z,14.33
2017-10-09T09:30:04.743Z,15.43
2017-10-09T09:32:33.112Z,15.40
2017-10-09T09:35:01.433Z,14.97
2017-10-09T09:37:29.742Z,15.17
2017-10-09T09:39:58.045Z,13.70
2017-10-09T09:42:26.356Z,14.77
2017-10-09T09:44:55.441Z,13.30
2017-10-09T09:47:23.758Z,14.07
2017-10-09T09:49:52.063Z,14.77
2017-10-09T09:52:20.358Z,14.87
2017-10-09T09:54:48.718Z,16.70
2017-10-09T09:57:17.055Z,17.03
2017-10-09T09:59:45.378Z,18.27
2017-10-09T10:02:13.698Z,19.80
2017-10-09T10:04:41.998Z,18.13
2017-10-09T10:07:10.328Z,20.37
2017-10-09T10:09:38.634Z,21.63
2017-10-09T10:12:06.974Z,22.30
2017-10-09T10:14:35.300Z,22.57
2017-10-09T10:17:03.651Z,22.60
2017-10-09T10:19:31.972Z,20.30
2017-10-09T10:22:00.294Z,18.87
2017-10-09T10:24:29.378Z,17.40
2017-10-09T10:26:57.692Z,21.00
2017-10-09T10:29:25.992Z,19.97
2017-10-09T10:31:54.301Z,20.67
2017-10-09T10:34:22.635Z,18.73
2017-10-09T10:36:50.934Z,16.37
2017-10-09T10:39:19.242Z,13.17
2017-10-09T10:41:47.584Z,15.23
2017-10-09T10:44:15.893Z,13.50
2017-10-09T10:46:44.324Z,11.30
2017-10-09T10:49:13.422Z,13.23
2017-10-09T10:51:42.584Z,11.20
2017-10-09T10:54:10.906Z,10.40
2017-10-09T10:56:40.082Z,11.03
2017-10-09T10:59:08.435Z,9.17
2017-10-09T11:01:36.738Z,10.70
2017-10-09T11:04:05.059Z,9.93
2017-10-09T11:06:34.147Z,9.20
2017-10-09T11:09:03.222Z,9.67
2017-10-09T11:11:31.517Z,9.20
2017-10-09T11:13:59.860Z,11.27
2017-10-09T11:16:28.192Z,12.00
2017-10-09T11:18:56.506Z,11.20
2017-10-09T11:21:25.078Z,12.10
2017-10-09T11:23:54.190Z,13.50
2017-10-09T11:26:22.487Z,12.67
2017-10-09T11:28:50.795Z,11.10
2017-10-09T11:31:19.120Z,13.17
2017-10-09T11:33:48.197Z,13.30
2017-10-09T11:36:16.520Z,10.80
2017-10-09T11:38:44.816Z,12.50
2017-10-09T11:41:13.120Z,13.27
2017-10-09T11:43:41.437Z,12.73
2017-10-09T11:46:10.509Z,12.30
2017-10-09T11:48:38.874Z,12.80
2017-10-09T11:51:07.195Z,13.30
2017-10-09T11:53:36.264Z,12.70
2017-10-09T11:56:04.565Z,12.80
2017-10-09T11:58:32.892Z,14.90
2017-10-09T12:01:01.179Z,14.77
2017-10-09T12:03:29.857Z,14.27
2017-10-09T12:05:58.163Z,12.60
2017-10-09T12:08:26.521Z,12.83
2017-10-09T12:10:54.833Z,13.80
2017-10-09T12:13:23.123Z,11.03
2017-10-09T12:15:51.439Z,13.50
2017-10-09T12:18:20.567Z,14.53
2017-10-09T12:20:48.925Z,14.37
2017-10-09T12:23:17.988Z,11.90
2017-10-09T12:25:46.309Z,13.33
2017-10-09T12:28:15.400Z,13.60
2017-10-09T12:30:44.457Z,13.27
2017-10-09T12:33:12.777Z,12.07
2017-10-09T12:35:41.123Z,13.50
2017-10-09T12:38:09.414Z,14.70
2017-10-09T12:40:37.723Z,15.37
2017-10-09T12:43:06.079Z,16.53
2017-10-09T12:45:35.257Z,14.70
2017-10-09T12:48:03.555Z,15.87
2017-10-09T12:50:31.873Z,16.50
2017-10-09T12:53:00.953Z,16.77
2017-10-09T12:55:30.017Z,17.57
2017-10-09T12:57:58.320Z,16.17
2017-10-09T13:00:26.635Z,16.53
2017-10-09T13:02:55.699Z,15.60
2017-10-09T13:05:24.076Z,17.53
2017-10-09T13:07:52.400Z,16.80
2017-10-09T13:10:21.480Z,18.60
2017-10-09T13:12:49.785Z,17.70
2017-10-09T13:15:18.868Z,17.80
2017-10-09T13:17:47.180Z,17.77
2017-10-09T13:20:15.492Z,18.63
2017-10-09T13:22:43.795Z,17.47
2017-10-09T13:25:12.101Z,18.30
2017-10-09T13:27:41.166Z,19.67
2017-10-09T13:30:09.511Z,21.07
2017-10-09T13:32:37.805Z,18.70
2017-10-09T13:35:06.101Z,18.30
2017-10-09T13:37:34.405Z,18.87
2017-10-09T13:40:02.730Z,19.20
2017-10-09T13:42:31.105Z,20.03
2017-10-09T13:45:00.178Z,20.63
2017-10-09T13:47:28.490Z,23.53
2017-10-09T13:49:56.802Z,20.17
2017-10-09T13:52:25.133Z,20.83
2017-10-09T13:54:54.202Z,20.50
2017-10-09T13:57:22.507Z,21.93
2017-10-09T13:59:50.819Z,20.97
2017-10-09T14:02:19.128Z,20.57
2017-10-09T14:04:47.461Z,20.00
2017-10-09T14:07:16.530Z,19.10
2017-10-09T14:09:44.847Z,20.77
2017-10-09T14:12:13.941Z,17.97
2017-10-09T14:14:43.055Z,16.87
2017-10-09T14:17:12.129Z,17.80
2017-10-09T14:19:40.451Z,16.10
2017-10-09T14:22:08.763Z,15.90
2017-10-09T14:24:37.115Z,16.60
2017-10-09T14:27:05.419Z,15.80
2017-10-09T14:29:33.747Z,15.23
2017-10-09T14:41:56.900Z,8.20
2017-10-09T14:44:25.222Z,6.00
2017-10-09T14:46:53.560Z,6.20
2017-10-09T14:49:22.646Z,7.40
2017-10-09T14:51:50.950Z,5.13
2017-10-09T14:54:20.024Z,4.97
2017-10-09T14:56:49.097Z,5.70
2017-10-09T14:59:17.610Z,5.27
2017-10-09T15:01:45.930Z,4.50
2017-10-09T15:04:14.320Z,5.00
2017-10-09T15:06:42.622Z,5.03
2017-10-09T15:09:10.915Z,4.23
2017-10-09T15:11:39.226Z,4.30
2017-10-09T15:14:08.293Z,5.47
2017-10-09T15:16:36.611Z,5.50
2017-10-09T15:19:05.671Z,5.77
2017-10-09T15:21:33.984Z,5.13
2017-10-09T15:24:02.329Z,5.60
2017-10-09T15:26:30.651Z,4.17
2017-10-09T15:28:58.972Z,4.97
2017-10-09T15:31:27.266Z,5.27
2017-10-09T15:33:55.563Z,5.90
2017-10-09T15:36:23.912Z,6.00
2017-10-09T15:38:52.223Z,7.43
2017-10-09T15:41:20.643Z,6.40
2017-10-09T15:43:49.734Z,6.93
2017-10-09T15:46:18.060Z,6.60
2017-10-09T15:48:46.383Z,7.37
2017-10-09T15:51:14.827Z,8.10
2017-10-09T15:53:43.198Z,9.13
2017-10-09T15:56:11.497Z,9.07
2017-10-09T15:58:39.793Z,9.90
2017-10-09T16:01:08.123Z,9.90
2017-10-09T16:03:37.196Z,9.90
2017-10-09T16:06:05.501Z,11.33
2017-10-09T16:08:34.577Z,10.00
2017-10-09T16:11:02.882Z,9.73
2017-10-09T16:13:31.987Z,11.30
2017-10-09T16:16:01.076Z,11.67
2017-10-09T16:18:29.381Z,11.67
2017-10-09T16:20:57.707Z,12.57
2017-10-09T16:23:26.033Z,11.67
2017-10-09T16:25:55.191Z,12.90
2017-10-09T16:28:23.523Z,11.97
2017-10-09T16:30:51.831Z,14.40
2017-10-09T16:33:20.144Z,14.33
2017-10-09T16:35:48.451Z,15.00
2017-10-09T16:38:17.545Z,17.70
2017-10-09T16:40:46.642Z,15.97
2017-10-09T16:43:14.975Z,19.37
2017-10-09T16:45:43.296Z,15.07
2017-10-09T16:48:11.658Z,13.57
2017-10-09T16:50:39.939Z,15.30
2017-10-09T16:53:08.275Z,15.17
2017-10-09T16:55:36.589Z,14.40
2017-10-09T16:58:04.902Z,13.17
2017-10-09T17:00:33.211Z,14.60
2017-10-09T17:03:02.288Z,12.87
2017-10-09T17:05:30.611Z,12.73
2017-10-09T17:07:59.031Z,11.00
2017-10-09T17:10:27.324Z,12.57
2017-10-09T17:12:55.643Z,14.60
2017-10-09T17:15:24.719Z,14.33
2017-10-09T17:17:53.031Z,13.60
2017-10-09T17:20:21.472Z,13.23
2017-10-09T17:22:49.775Z,15.00
2017-10-09T17:25:18.090Z,14.00
2017-10-09T17:27:46.474Z,12.03
2017-10-09T17:30:14.775Z,13.50
2017-10-09T17:32:43.086Z,14.33
2017-10-09T17:35:11.423Z,14.40
2017-10-09T17:37:39.741Z,16.90
2017-10-09T17:40:08.057Z,17.07
2017-10-09T17:42:37.145Z,16.57
2017-10-09T17:45:05.454Z,17.17
2017-10-09T17:47:33.766Z,15.80
2017-10-09T17:50:02.068Z,19.00
2017-10-09T17:52:30.395Z,18.30
2017-10-09T17:54:58.702Z,18.83
2017-10-09T17:57:27.073Z,17.30
2017-10-09T17:59:55.380Z,16.77
2017-10-09T18:02:23.700Z,15.57
2017-10-09T18:04:52.000Z,16.10
2017-10-09T18:07:21.090Z,12.90
2017-10-09T18:09:50.183Z,13.57
2017-10-09T18:12:19.271Z,13.80
2017-10-09T18:14:47.590Z,11.20
2017-10-09T18:17:15.904Z,11.87
2017-10-09T18:19:44.227Z,11.23
2017-10-09T18:22:13.420Z,11.20
2017-10-09T18:24:41.766Z,10.30
2017-10-09T18:27:10.093Z,11.40
2017-10-09T18:29:39.173Z,10.30
2017-10-09T18:32:07.536Z,13.27
2017-10-09T18:34:35.837Z,12.97
2017-10-09T18:37:04.159Z,10.83
2017-10-09T18:39:32.480Z,12.60
2017-10-09T18:42:00.783Z,12.20
2017-10-09T18:44:29.859Z,11.90
2017-10-09T18:46:58.166Z,14.13
2017-10-09T18:49:26.476Z,13.67
2017-10-09T18:51:55.570Z,13.00
2017-10-09T18:54:24.653Z,11.90
2017-10-09T18:56:52.958Z,13.37
2017-10-09T18:59:22.048Z,13.13
2017-10-09T19:01:51.176Z,14.07
2017-10-09T19:04:19.508Z,13.13
2017-10-09T19:06:47.811Z,13.03
2017-10-09T19:09:16.942Z,13.40
2017-10-09T19:11:45.309Z,15.47
2017-10-09T19:14:13.621Z,17.87
2017-10-09T19:16:41.968Z,18.67
2017-10-09T19:19:10.278Z,21.60
2017-10-09T19:21:38.594Z,22.87
2017-10-09T19:24:06.947Z,23.80
2017-10-09T19:26:35.354Z,24.27
2017-10-09T19:29:03.686Z,22.93
2017-10-09T19:31:31.984Z,26.33
2017-10-09T19:34:00.307Z,25.70
2017-10-09T19:36:28.627Z,24.70
2017-10-09T19:38:57.124Z,27.60
2017-10-09T19:41:25.614Z,24.70
2017-10-09T19:43:54.186Z,23.83
2017-10-09T19:46:22.532Z,23.80
2017-10-09T19:48:50.883Z,24.90
2017-10-09T19:51:19.248Z,23.90
2017-10-09T19:53:47.588Z,22.67
2017-10-09T19:56:15.901Z,22.60
2017-10-09T19:58:44.200Z,22.13
2017-10-09T20:01:12.512Z,21.40
2017-10-09T20:03:41.332Z,23.07
2017-10-09T20:06:09.646Z,18.40
2017-10-09T20:08:37.969Z,20.37
2017-10-09T20:11:06.286Z,21.00
2017-10-09T20:13:35.370Z,19.80
2017-10-09T20:16:03.672Z,19.50
2017-10-09T20:18:32.814Z,19.00
2017-10-09T20:21:01.119Z,19.10
2017-10-09T20:23:29.432Z,19.40
2017-10-09T20:25:58.501Z,18.00
2017-10-09T20:28:26.872Z,16.53
2017-10-09T20:30:55.173Z,16.80
2017-10-09T20:33:23.535Z,15.10
2017-10-09T20:35:51.844Z,17.00
2017-10-09T20:38:20.267Z,17.43
2017-10-09T20:40:48.558Z,15.97
2017-10-09T20:43:16.871Z,16.33
2017-10-09T20:45:45.167Z,17.80
2017-10-09T20:48:13.480Z,17.97
2017-10-09T20:50:41.785Z,17.93
2017-10-09T20:53:10.078Z,19.80
2017-10-09T20:55:38.374Z,22.80
2017-10-09T20:58:06.683Z,20.80
2017-10-09T21:00:35.006Z,28.00
2017-10-09T21:03:03.305Z,27.80
2017-10-09T21:05:31.608Z,26.40
2017-10-09T21:08:00.692Z,28.50
2017-10-09T21:10:29.783Z,32.50
2017-10-09T21:12:58.917Z,25.50
2017-10-09T21:15:27.246Z,28.50
2017-10-09T21:17:55.641Z,24.93
2017-10-09T21:20:23.981Z,25.77
2017-10-09T21:22:53.066Z,26.70
2017-10-09T21:25:21.379Z,26.27
2017-10-09T21:27:49.699Z,25.33
2017-10-09T21:30:18.007Z,29.70
2017-10-09T21:32:46.316Z,27.67
2017-10-09T21:35:15.401Z,26.93
2017-10-09T21:37:44.492Z,29.20
2017-10-09T21:40:12.804Z,29.30
2017-10-09T21:42:41.094Z,26.47
2017-10-09T21:45:09.423Z,28.53
2017-10-09T21:47:37.721Z,32.27
2017-10-09T21:50:06.024Z,29.40
2017-10-09T21:52:35.098Z,35.73
2017-10-09T21:55:03.481Z,35.03
2017-10-09T21:57:32.606Z,31.33
2017-10-09T22:00:00.947Z,39.03
2017-10-09T22:02:29.263Z,36.30
2017-10-09T22:04:58.334Z,37.90
2017-10-09T22:07:26.631Z,32.20
2017-10-09T22:09:55.705Z,32.53
2017-10-09T22:12:24.015Z,34.70
2017-10-09T22:14:53.096Z,30.30
2017-10-09T22:17:22.161Z,27.17
2017-10-09T22:19:50.469Z,27.10
2017-10-09T22:22:18.790Z,25.80
2017-10-09T22:24:48.083Z,26.00
2017-10-09T22:27:17.179Z,25.50
2017-10-09T22:29:46.248Z,25.07
2017-10-09T22:32:14.566Z,27.57
2017-10-09T22:34:43.664Z,25.73
2017-10-09T22:37:11.998Z,25.77
2017-10-09T22:39:40.361Z,21.83
2017-10-09T22:42:08.661Z,23.93
2017-10-09T22:44:37.356Z,21.87
2017-10-09T22:47:05.677Z,22.27
2017-10-09T22:49:34.768Z,18.67
2017-10-09T22:52:03.835Z,19.40
2017-10-09T22:54:42.074Z,18.07
2017-10-09T22:57:10.384Z,20.20
2017-10-09T22:59:38.701Z,21.23
2017-10-09T23:02:07.023Z,18.03
2017-10-09T23:04:35.327Z,18.80
2017-10-09T23:07:03.653Z,19.10
2017-10-09T23:09:32.109Z,22.40
2017-10-09T23:12:00.412Z,20.20
2017-10-09T23:14:28.797Z,29.87
2017-10-09T23:16:57.097Z,27.20
2017-10-09T23:19:25.395Z,29.50
2017-10-09T23:21:53.719Z,33.20
2017-10-09T23:24:22.034Z,34.43
2017-10-09T23:26:50.411Z,30.57
2017-10-09T23:29:18.725Z,32.80
2017-10-09T23:31:47.994Z,31.53
2017-10-09T23:34:16.343Z,33.30
2017-10-09T23:36:44.655Z,33.80
2017-10-09T23:39:12.951Z,31.33
2017-10-09T23:41:41.261Z,40.17
2017-10-09T23:44:10.326Z,34.90
2017-10-09T23:46:38.663Z,35.10
2017-10-09T23:49:06.995Z,30.27
2017-10-09T23:51:35.331Z,33.97
2017-10-09T23:54:04.528Z,33.37
2017-10-09T23:56:32.967Z,39.20
2017-10-09T23:59:01.275Z,35.30
